sensor_id;sensor_type;location;lat;lon;timestamp;pressure;altitude;pressure_sealevel;temperature;humidity
8703;BME280;9002;42.708;23.186;2024-03-23T00:54:41;95031.91;;;10.30;42.31
8703;BME280;9002;42.708;23.186;2024-03-23T00:57:08;95014.09;;;10.17;40.68
8703;BME280;9002;42.708;23.186;2024-03-23T00:59:34;95016.97;;;10.20;41.33
8703;BME280;9002;42.708;23.186;2024-03-23T01:02:01;95019.91;;;10.24;40.59
8703;BME280;9002;42.708;23.186;2024-03-23T01:04:27;95015.00;;;9.94;41.18
8703;BME280;9002;42.708;23.186;2024-03-23T01:06:54;95021.75;;;10.12;42.04
8703;BME280;9002;42.708;23.186;2024-03-23T01:09:20;95007.63;;;10.03;41.72
8703;BME280;9002;42.708;23.186;2024-03-23T01:11:49;95012.31;;;10.06;41.91
8703;BME280;9002;42.708;23.186;2024-03-23T01:14:15;94987.84;;;9.96;41.59
8703;BME280;9002;42.708;23.186;2024-03-23T01:16:42;95002.16;;;9.99;42.78
8703;BME280;9002;42.708;23.186;2024-03-23T01:19:08;95012.97;;;10.13;41.83
8703;BME280;9002;42.708;23.186;2024-03-23T01:21:35;94999.47;;;10.11;42.30
8703;BME280;9002;42.708;23.186;2024-03-23T01:24:01;95008.09;;;10.00;43.10
8703;BME280;9002;42.708;23.186;2024-03-23T01:26:28;95005.88;;;9.75;42.44
8703;BME280;9002;42.708;23.186;2024-03-23T01:28:55;95012.13;;;9.79;42.25
8703;BME280;9002;42.708;23.186;2024-03-23T01:31:22;95023.13;;;9.29;43.16
8703;BME280;9002;42.708;23.186;2024-03-23T01:33:48;95016.22;;;9.34;42.67
8703;BME280;9002;42.708;23.186;2024-03-23T01:36:15;95019.22;;;9.15;42.78
8703;BME280;9002;42.708;23.186;2024-03-23T01:38:41;95015.88;;;9.02;43.07
8703;BME280;9002;42.708;23.186;2024-03-23T01:41:08;95012.44;;;9.25;42.29
8703;BME280;9002;42.708;23.186;2024-03-23T01:43:34;95015.44;;;9.46;41.87
8703;BME280;9002;42.708;23.186;2024-03-23T01:46:02;95013.88;;;9.45;42.98
8703;BME280;9002;42.708;23.186;2024-03-23T01:48:28;95014.88;;;9.44;42.82
8703;BME280;9002;42.708;23.186;2024-03-23T01:50:55;95003.47;;;9.28;42.90
8703;BME280;9002;42.708;23.186;2024-03-23T01:53:24;95011.56;;;9.20;43.09
8703;BME280;9002;42.708;23.186;2024-03-23T01:55:52;95007.72;;;8.82;44.28
8703;BME280;9002;42.708;23.186;2024-03-23T01:58:18;95013.19;;;8.62;45.26
8703;BME280;9002;42.708;23.186;2024-03-23T02:00:45;95009.81;;;8.62;44.81
8703;BME280;9002;42.708;23.186;2024-03-23T02:03:23;95007.59;;;8.65;44.56
8703;BME280;9002;42.708;23.186;2024-03-23T02:05:51;95016.69;;;8.91;44.85
8703;BME280;9002;42.708;23.186;2024-03-23T02:08:18;95006.56;;;9.01;43.91
8703;BME280;9002;42.708;23.186;2024-03-23T02:10:46;95010.81;;;8.96;43.82
8703;BME280;9002;42.708;23.186;2024-03-23T02:13:14;95002.09;;;8.62;44.90
8703;BME280;9002;42.708;23.186;2024-03-23T02:15:41;95007.03;;;8.63;45.46
8703;BME280;9002;42.708;23.186;2024-03-23T02:18:07;94992.53;;;8.62;44.58
8703;BME280;9002;42.708;23.186;2024-03-23T02:20:37;95023.06;;;8.89;44.23
8703;BME280;9002;42.708;23.186;2024-03-23T02:23:04;95022.28;;;8.76;44.37
8703;BME280;9002;42.708;23.186;2024-03-23T02:25:32;95017.25;;;8.58;45.25
8703;BME280;9002;42.708;23.186;2024-03-23T02:27:59;95026.13;;;8.74;43.97
8703;BME280;9002;42.708;23.186;2024-03-23T02:30:26;95019.28;;;8.56;44.62
8703;BME280;9002;42.708;23.186;2024-03-23T02:32:52;95033.06;;;8.50;44.69
8703;BME280;9002;42.708;23.186;2024-03-23T02:35:19;95025.00;;;8.46;44.52
8703;BME280;9002;42.708;23.186;2024-03-23T02:37:46;95024.88;;;8.53;44.33
8703;BME280;9002;42.708;23.186;2024-03-23T02:42:52;95016.59;;;8.63;44.44
8703;BME280;9002;42.708;23.186;2024-03-23T02:45:19;95013.44;;;8.49;45.21
8703;BME280;9002;42.708;23.186;2024-03-23T02:47:45;95015.63;;;8.34;45.97
8703;BME280;9002;42.708;23.186;2024-03-23T02:50:12;95021.91;;;8.26;46.31
8703;BME280;9002;42.708;23.186;2024-03-23T02:52:38;95013.56;;;8.01;46.50
8703;BME280;9002;42.708;23.186;2024-03-23T02:55:05;95009.75;;;8.03;46.07
8703;BME280;9002;42.708;23.186;2024-03-23T02:57:31;95009.44;;;8.23;46.02
8703;BME280;9002;42.708;23.186;2024-03-23T02:59:59;95014.28;;;8.19;45.59
8703;BME280;9002;42.708;23.186;2024-03-23T03:02:25;95013.97;;;8.28;46.25
8703;BME280;9002;42.708;23.186;2024-03-23T03:04:52;95011.94;;;8.30;45.27
8703;BME280;9002;42.708;23.186;2024-03-23T03:07:18;95005.53;;;8.20;45.68
8703;BME280;9002;42.708;23.186;2024-03-23T03:09:45;95015.63;;;8.10;47.06
8703;BME280;9002;42.708;23.186;2024-03-23T03:12:11;95011.78;;;8.01;46.97
8703;BME280;9002;42.708;23.186;2024-03-23T03:14:38;94999.69;;;8.13;46.09
8703;BME280;9002;42.708;23.186;2024-03-23T03:17:05;95014.69;;;7.93;46.48
8703;BME280;9002;42.708;23.186;2024-03-23T03:19:32;95006.00;;;7.76;47.49
8703;BME280;9002;42.708;23.186;2024-03-23T03:21:58;95015.00;;;7.96;46.74
8703;BME280;9002;42.708;23.186;2024-03-23T03:24:25;95003.63;;;7.74;47.16
8703;BME280;9002;42.708;23.186;2024-03-23T03:26:51;95011.25;;;7.81;47.54
8703;BME280;9002;42.708;23.186;2024-03-23T03:29:18;95017.53;;;7.73;47.00
8703;BME280;9002;42.708;23.186;2024-03-23T03:31:44;95017.13;;;7.88;46.85
8703;BME280;9002;42.708;23.186;2024-03-23T03:34:12;95024.47;;;8.03;46.41
8703;BME280;9002;42.708;23.186;2024-03-23T03:36:38;95021.88;;;8.03;46.22
8703;BME280;9002;42.708;23.186;2024-03-23T03:39:05;95021.88;;;8.14;46.40
8703;BME280;9002;42.708;23.186;2024-03-23T03:41:32;95013.03;;;8.22;46.08
8703;BME280;9002;42.708;23.186;2024-03-23T03:43:59;95016.53;;;8.28;45.66
8703;BME280;9002;42.708;23.186;2024-03-23T03:46:27;95014.28;;;8.19;46.23
8703;BME280;9002;42.708;23.186;2024-03-23T03:48:54;94998.88;;;8.01;46.74
8703;BME280;9002;42.708;23.186;2024-03-23T03:51:22;95020.34;;;8.25;46.09
8703;BME280;9002;42.708;23.186;2024-03-23T03:53:49;95004.75;;;8.20;45.75
8703;BME280;9002;42.708;23.186;2024-03-23T03:56:14;95013.72;;;8.29;45.64
8703;BME280;9002;42.708;23.186;2024-03-23T03:58:42;95014.84;;;8.21;45.97
8703;BME280;9002;42.708;23.186;2024-03-23T04:01:08;95007.94;;;7.92;46.57
8703;BME280;9002;42.708;23.186;2024-03-23T04:03:35;95010.34;;;8.17;46.05
8703;BME280;9002;42.708;23.186;2024-03-23T04:06:01;95021.44;;;8.17;46.60
8703;BME280;9002;42.708;23.186;2024-03-23T04:08:31;95026.50;;;8.12;46.75
8703;BME280;9002;42.708;23.186;2024-03-23T04:10:57;95019.75;;;8.11;46.49
8703;BME280;9002;42.708;23.186;2024-03-23T04:13:24;95016.81;;;8.08;46.82
8703;BME280;9002;42.708;23.186;2024-03-23T04:15:54;95011.53;;;7.91;46.68
8703;BME280;9002;42.708;23.186;2024-03-23T04:18:21;95020.53;;;8.00;47.23
8703;BME280;9002;42.708;23.186;2024-03-23T04:20:47;95023.84;;;7.89;46.76
8703;BME280;9002;42.708;23.186;2024-03-23T04:23:14;95018.31;;;7.74;46.72
8703;BME280;9002;42.708;23.186;2024-03-23T04:25:41;95027.66;;;7.86;46.78
8703;BME280;9002;42.708;23.186;2024-03-23T04:28:08;95024.22;;;8.04;46.19
8703;BME280;9002;42.708;23.186;2024-03-23T04:30:34;95022.78;;;8.08;46.21
8703;BME280;9002;42.708;23.186;2024-03-23T04:33:02;95033.75;;;7.92;46.04
8703;BME280;9002;42.708;23.186;2024-03-23T04:35:28;95013.97;;;7.86;47.04
8703;BME280;9002;42.708;23.186;2024-03-23T04:37:55;95022.72;;;7.85;46.94
8703;BME280;9002;42.708;23.186;2024-03-23T04:40:24;95032.28;;;7.96;46.67
8703;BME280;9002;42.708;23.186;2024-03-23T04:42:52;95027.69;;;7.98;46.51
8703;BME280;9002;42.708;23.186;2024-03-23T04:45:19;95038.00;;;7.98;46.80
8703;BME280;9002;42.708;23.186;2024-03-23T04:47:46;95038.25;;;8.08;46.35
8703;BME280;9002;42.708;23.186;2024-03-23T04:50:13;95014.47;;;8.06;45.77
8703;BME280;9002;42.708;23.186;2024-03-23T04:52:40;95038.91;;;8.04;46.33
8703;BME280;9002;42.708;23.186;2024-03-23T04:55:07;95042.53;;;8.14;46.06
8703;BME280;9002;42.708;23.186;2024-03-23T04:57:33;95032.50;;;7.94;45.95
8703;BME280;9002;42.708;23.186;2024-03-23T05:00:01;95031.22;;;7.74;46.63
8703;BME280;9002;42.708;23.186;2024-03-23T05:02:30;95046.69;;;7.74;46.81
8703;BME280;9002;42.708;23.186;2024-03-23T05:04:57;95041.25;;;7.63;47.01
8703;BME280;9002;42.708;23.186;2024-03-23T05:07:23;95027.84;;;7.73;47.29
8703;BME280;9002;42.708;23.186;2024-03-23T05:09:50;95035.16;;;7.88;46.57
8703;BME280;9002;42.708;23.186;2024-03-23T05:12:16;95038.00;;;7.98;46.03
8703;BME280;9002;42.708;23.186;2024-03-23T05:14:43;95037.25;;;7.67;46.70
8703;BME280;9002;42.708;23.186;2024-03-23T05:17:10;95036.75;;;7.89;46.06
8703;BME280;9002;42.708;23.186;2024-03-23T05:19:37;95033.75;;;7.92;46.32
8703;BME280;9002;42.708;23.186;2024-03-23T05:22:03;95026.88;;;7.86;46.05
8703;BME280;9002;42.708;23.186;2024-03-23T05:24:30;95030.16;;;7.93;45.89
8703;BME280;9002;42.708;23.186;2024-03-23T05:26:57;95029.19;;;7.46;47.34
8703;BME280;9002;42.708;23.186;2024-03-23T05:29:25;95027.25;;;7.71;47.11
8703;BME280;9002;42.708;23.186;2024-03-23T05:31:51;95029.44;;;7.74;46.20
8703;BME280;9002;42.708;23.186;2024-03-23T05:34:21;95035.59;;;7.73;46.17
8703;BME280;9002;42.708;23.186;2024-03-23T05:36:47;95033.97;;;7.60;46.64
8703;BME280;9002;42.708;23.186;2024-03-23T05:39:15;95026.59;;;7.64;46.88
8703;BME280;9002;42.708;23.186;2024-03-23T05:41:42;95036.41;;;7.55;47.01
8703;BME280;9002;42.708;23.186;2024-03-23T05:44:08;95037.94;;;7.75;46.71
8703;BME280;9002;42.708;23.186;2024-03-23T05:46:36;95024.75;;;7.83;46.30
8703;BME280;9002;42.708;23.186;2024-03-23T05:49:03;95027.00;;;7.61;46.67
8703;BME280;9002;42.708;23.186;2024-03-23T05:51:32;95033.34;;;6.73;48.81
8703;BME280;9002;42.708;23.186;2024-03-23T05:53:58;94992.38;;;6.90;47.68
8703;BME280;9002;42.708;23.186;2024-03-23T05:56:24;95034.81;;;7.54;46.79
8703;BME280;9002;42.708;23.186;2024-03-23T05:58:51;95031.44;;;7.24;47.65
8703;BME280;9002;42.708;23.186;2024-03-23T06:01:18;95036.59;;;7.54;47.54
8703;BME280;9002;42.708;23.186;2024-03-23T06:03:44;95031.31;;;7.67;45.70
8703;BME280;9002;42.708;23.186;2024-03-23T06:06:11;95019.91;;;7.75;46.53
8703;BME280;9002;42.708;23.186;2024-03-23T06:08:39;95028.53;;;7.50;47.21
8703;BME280;9002;42.708;23.186;2024-03-23T06:11:06;95014.34;;;7.29;47.40
8703;BME280;9002;42.708;23.186;2024-03-23T06:13:32;95012.28;;;7.50;47.06
8703;BME280;9002;42.708;23.186;2024-03-23T06:16:00;95018.19;;;7.68;47.20
8703;BME280;9002;42.708;23.186;2024-03-23T06:18:26;95027.44;;;7.88;46.35
8703;BME280;9002;42.708;23.186;2024-03-23T06:20:53;95027.25;;;8.01;45.86
8703;BME280;9002;42.708;23.186;2024-03-23T06:23:19;95026.81;;;8.04;46.03
8703;BME280;9002;42.708;23.186;2024-03-23T06:25:48;95017.50;;;8.15;45.74
8703;BME280;9002;42.708;23.186;2024-03-23T06:28:14;95024.47;;;8.26;45.75
8703;BME280;9002;42.708;23.186;2024-03-23T06:30:41;95024.25;;;8.16;46.00
8703;BME280;9002;42.708;23.186;2024-03-23T06:33:07;95019.66;;;8.18;45.63
8703;BME280;9002;42.708;23.186;2024-03-23T06:35:37;95023.38;;;8.22;46.16
8703;BME280;9002;42.708;23.186;2024-03-23T06:38:03;95025.66;;;8.53;44.91
8703;BME280;9002;42.708;23.186;2024-03-23T06:40:30;95019.50;;;8.66;44.43
8703;BME280;9002;42.708;23.186;2024-03-23T06:42:57;95024.31;;;8.86;43.98
8703;BME280;9002;42.708;23.186;2024-03-23T06:45:24;95023.88;;;8.77;44.39
8703;BME280;9002;42.708;23.186;2024-03-23T06:47:50;95026.31;;;8.96;44.33
8703;BME280;9002;42.708;23.186;2024-03-23T06:50:18;95026.75;;;9.04;43.89
8703;BME280;9002;42.708;23.186;2024-03-23T06:52:45;95029.44;;;8.98;43.89
8703;BME280;9002;42.708;23.186;2024-03-23T06:55:11;95020.38;;;8.95;43.43
8703;BME280;9002;42.708;23.186;2024-03-23T06:57:38;95027.66;;;9.10;43.27
8703;BME280;9002;42.708;23.186;2024-03-23T07:00:06;95031.69;;;9.18;43.75
8703;BME280;9002;42.708;23.186;2024-03-23T07:02:35;95019.78;;;9.17;42.77
8703;BME280;9002;42.708;23.186;2024-03-23T07:05:01;95021.31;;;9.29;43.12
8703;BME280;9002;42.708;23.186;2024-03-23T07:07:28;95014.31;;;9.42;42.12
8703;BME280;9002;42.708;23.186;2024-03-23T07:09:55;95017.72;;;9.30;43.62
8703;BME280;9002;42.708;23.186;2024-03-23T07:12:22;95010.88;;;9.24;43.17
8703;BME280;9002;42.708;23.186;2024-03-23T07:14:48;95015.78;;;9.37;43.44
8703;BME280;9002;42.708;23.186;2024-03-23T07:17:16;95012.50;;;9.02;43.24
8703;BME280;9002;42.708;23.186;2024-03-23T07:19:43;95005.66;;;8.96;43.15
8703;BME280;9002;42.708;23.186;2024-03-23T07:22:10;94991.06;;;9.01;44.67
8703;BME280;9002;42.708;23.186;2024-03-23T07:24:36;95000.34;;;9.14;43.09
8703;BME280;9002;42.708;23.186;2024-03-23T07:29:35;94994.50;;;9.07;44.39
8703;BME280;9002;42.708;23.186;2024-03-23T07:32:02;95003.69;;;9.15;42.79
8703;BME280;9002;42.708;23.186;2024-03-23T07:34:30;94998.34;;;9.04;43.25
8703;BME280;9002;42.708;23.186;2024-03-23T07:36:57;94998.19;;;9.23;43.69
8703;BME280;9002;42.708;23.186;2024-03-23T07:39:23;94987.66;;;9.13;42.70
8703;BME280;9002;42.708;23.186;2024-03-23T07:41:50;94968.31;;;9.15;42.53
8703;BME280;9002;42.708;23.186;2024-03-23T07:44:16;94977.91;;;9.03;42.85
8703;BME280;9002;42.708;23.186;2024-03-23T07:46:43;94978.75;;;9.20;43.53
8703;BME280;9002;42.708;23.186;2024-03-23T07:49:09;94975.88;;;9.33;42.14
8703;BME280;9002;42.708;23.186;2024-03-23T07:51:43;94984.03;;;9.54;42.05
8703;BME280;9002;42.708;23.186;2024-03-23T07:54:10;94985.84;;;9.70;41.24
8703;BME280;9002;42.708;23.186;2024-03-23T07:56:37;94988.59;;;9.63;41.90
8703;BME280;9002;42.708;23.186;2024-03-23T07:59:08;94958.97;;;9.26;42.95
8703;BME280;9002;42.708;23.186;2024-03-23T08:01:40;94991.59;;;9.72;42.02
8703;BME280;9002;42.708;23.186;2024-03-23T08:04:05;94978.50;;;9.79;42.04
8703;BME280;9002;42.708;23.186;2024-03-23T08:06:32;94988.22;;;9.72;42.33
8703;BME280;9002;42.708;23.186;2024-03-23T08:09:00;94986.13;;;9.85;40.61
8703;BME280;9002;42.708;23.186;2024-03-23T08:11:28;94980.63;;;9.82;41.29
8703;BME280;9002;42.708;23.186;2024-03-23T08:13:55;94983.53;;;9.85;40.99
8703;BME280;9002;42.708;23.186;2024-03-23T08:16:22;94989.91;;;9.94;41.12
8703;BME280;9002;42.708;23.186;2024-03-23T08:18:52;94974.38;;;9.94;40.42
8703;BME280;9002;42.708;23.186;2024-03-23T08:21:19;94973.88;;;10.26;40.89
8703;BME280;9002;42.708;23.186;2024-03-23T08:23:45;94925.13;;;10.06;40.67
8703;BME280;9002;42.708;23.186;2024-03-23T08:26:15;94961.72;;;10.27;40.31
8703;BME280;9002;42.708;23.186;2024-03-23T08:28:41;94973.53;;;10.22;41.09
8703;BME280;9002;42.708;23.186;2024-03-23T08:31:09;94941.78;;;10.27;40.73
8703;BME280;9002;42.708;23.186;2024-03-23T08:33:36;94950.38;;;10.49;39.28
8703;BME280;9002;42.708;23.186;2024-03-23T08:36:06;94959.50;;;10.74;39.67
8703;BME280;9002;42.708;23.186;2024-03-23T08:38:32;94957.94;;;10.73;38.61
8703;BME280;9002;42.708;23.186;2024-03-23T08:41:00;94950.88;;;10.68;39.89
8703;BME280;9002;42.708;23.186;2024-03-23T08:43:41;94945.16;;;10.66;39.47
8703;BME280;9002;42.708;23.186;2024-03-23T08:46:10;94955.47;;;10.83;39.68
8703;BME280;9002;42.708;23.186;2024-03-23T08:48:37;94943.84;;;10.86;38.71
8703;BME280;9002;42.708;23.186;2024-03-23T08:51:05;94944.84;;;10.79;40.89
8703;BME280;9002;42.708;23.186;2024-03-23T08:53:34;94939.09;;;10.77;39.75
8703;BME280;9002;42.708;23.186;2024-03-23T08:56:00;94933.91;;;10.99;39.27
8703;BME280;9002;42.708;23.186;2024-03-23T08:58:29;94941.41;;;11.23;39.15
8703;BME280;9002;42.708;23.186;2024-03-23T09:03:32;94919.22;;;11.32;39.61
8703;BME280;9002;42.708;23.186;2024-03-23T09:06:02;94889.03;;;11.21;39.68
8703;BME280;9002;42.708;23.186;2024-03-23T09:08:28;94864.63;;;11.17;38.34
8703;BME280;9002;42.708;23.186;2024-03-23T09:10:55;94905.47;;;11.58;38.47
8703;BME280;9002;42.708;23.186;2024-03-23T09:13:21;94900.13;;;11.70;37.42
8703;BME280;9002;42.708;23.186;2024-03-23T09:15:49;94901.25;;;11.79;37.72
8703;BME280;9002;42.708;23.186;2024-03-23T09:18:15;94870.31;;;11.73;37.60
8703;BME280;9002;42.708;23.186;2024-03-23T09:20:44;94892.94;;;12.09;37.16
8703;BME280;9002;42.708;23.186;2024-03-23T09:23:10;94888.31;;;12.16;37.20
8703;BME280;9002;42.708;23.186;2024-03-23T09:25:37;94895.97;;;12.38;36.51
8703;BME280;9002;42.708;23.186;2024-03-23T09:28:04;94884.81;;;12.43;36.69
8703;BME280;9002;42.708;23.186;2024-03-23T09:30:35;94880.72;;;12.52;36.19
8703;BME280;9002;42.708;23.186;2024-03-23T09:33:02;94884.47;;;12.82;36.71
8703;BME280;9002;42.708;23.186;2024-03-23T09:35:29;94881.91;;;12.87;36.08
8703;BME280;9002;42.708;23.186;2024-03-23T09:37:56;94856.44;;;12.89;36.38
8703;BME280;9002;42.708;23.186;2024-03-23T09:40:24;94875.22;;;13.16;35.81
8703;BME280;9002;42.708;23.186;2024-03-23T09:42:50;94857.59;;;13.33;35.64
8703;BME280;9002;42.708;23.186;2024-03-23T09:45:21;94859.47;;;13.48;35.06
8703;BME280;9002;42.708;23.186;2024-03-23T09:47:47;94847.22;;;13.54;34.32
8703;BME280;9002;42.708;23.186;2024-03-23T09:50:16;94859.69;;;13.72;34.45
8703;BME280;9002;42.708;23.186;2024-03-23T09:52:42;94836.28;;;13.77;33.71
8703;BME280;9002;42.708;23.186;2024-03-23T09:55:10;94850.56;;;14.10;33.30
8703;BME280;9002;42.708;23.186;2024-03-23T09:57:36;94850.53;;;14.26;33.06
8703;BME280;9002;42.708;23.186;2024-03-23T10:00:04;94842.94;;;14.44;32.93
8703;BME280;9002;42.708;23.186;2024-03-23T10:02:30;94838.47;;;14.60;32.03
8703;BME280;9002;42.708;23.186;2024-03-23T10:04:57;94834.03;;;14.61;32.09
8703;BME280;9002;42.708;23.186;2024-03-23T10:07:23;94813.50;;;14.49;31.60
8703;BME280;9002;42.708;23.186;2024-03-23T10:09:50;94822.78;;;14.75;31.62
8703;BME280;9002;42.708;23.186;2024-03-23T10:12:18;94820.28;;;15.04;31.00
8703;BME280;9002;42.708;23.186;2024-03-23T10:14:45;94815.50;;;15.17;30.11
8703;BME280;9002;42.708;23.186;2024-03-23T10:17:12;94815.00;;;15.15;29.34
8703;BME280;9002;42.708;23.186;2024-03-23T10:19:40;94811.34;;;15.16;30.05
8703;BME280;9002;42.708;23.186;2024-03-23T10:22:09;94807.44;;;15.13;29.86
8703;BME280;9002;42.708;23.186;2024-03-23T10:24:35;94793.97;;;15.01;29.58
8703;BME280;9002;42.708;23.186;2024-03-23T10:27:02;94801.28;;;15.38;28.64
8703;BME280;9002;42.708;23.186;2024-03-23T10:29:29;94803.66;;;15.69;29.26
8703;BME280;9002;42.708;23.186;2024-03-23T10:32:08;94794.41;;;15.81;28.54
8703;BME280;9002;42.708;23.186;2024-03-23T10:37:22;94770.44;;;16.03;28.40
8703;BME280;9002;42.708;23.186;2024-03-23T10:39:49;94781.16;;;16.26;27.45
8703;BME280;9002;42.708;23.186;2024-03-23T10:42:15;94767.09;;;16.45;27.27
8703;BME280;9002;42.708;23.186;2024-03-23T10:44:43;94770.91;;;16.53;27.65
8703;BME280;9002;42.708;23.186;2024-03-23T10:47:09;94767.75;;;16.56;26.49
8703;BME280;9002;42.708;23.186;2024-03-23T10:49:36;94755.09;;;16.44;26.19
8703;BME280;9002;42.708;23.186;2024-03-23T10:52:03;94747.38;;;16.53;26.52
8703;BME280;9002;42.708;23.186;2024-03-23T10:54:31;94749.34;;;16.61;26.17
8703;BME280;9002;42.708;23.186;2024-03-23T10:56:58;94741.53;;;16.80;26.20
8703;BME280;9002;42.708;23.186;2024-03-23T10:59:29;94730.69;;;16.73;26.20
8703;BME280;9002;42.708;23.186;2024-03-23T11:01:57;94726.78;;;17.08;25.76
8703;BME280;9002;42.708;23.186;2024-03-23T11:04:31;94719.38;;;17.29;26.45
8703;BME280;9002;42.708;23.186;2024-03-23T11:06:58;94711.53;;;17.29;26.28
8703;BME280;9002;42.708;23.186;2024-03-23T11:09:41;94709.66;;;17.62;26.60
8703;BME280;9002;42.708;23.186;2024-03-23T11:12:27;94705.72;;;17.78;26.02
8703;BME280;9002;42.708;23.186;2024-03-23T11:14:57;94695.53;;;18.18;25.37
8703;BME280;9002;42.708;23.186;2024-03-23T11:17:27;94691.75;;;18.24;25.46
8703;BME280;9002;42.708;23.186;2024-03-23T11:19:55;94683.94;;;18.47;24.22
8703;BME280;9002;42.708;23.186;2024-03-23T11:22:41;94685.94;;;18.63;23.79
8703;BME280;9002;42.708;23.186;2024-03-23T11:25:16;94681.78;;;18.62;23.80
8703;BME280;9002;42.708;23.186;2024-03-23T11:27:43;94666.34;;;18.47;24.69
8703;BME280;9002;42.708;23.186;2024-03-23T11:30:15;94673.94;;;18.49;24.05
8703;BME280;9002;42.708;23.186;2024-03-23T11:32:44;94659.59;;;18.68;23.36
8703;BME280;9002;42.708;23.186;2024-03-23T11:35:24;94671.19;;;18.67;23.94
8703;BME280;9002;42.708;23.186;2024-03-23T11:38:02;94658.25;;;19.16;23.54
8703;BME280;9002;42.708;23.186;2024-03-23T11:40:29;94650.75;;;19.00;23.21
8703;BME280;9002;42.708;23.186;2024-03-23T11:42:55;94655.97;;;19.54;22.45
8703;BME280;9002;42.708;23.186;2024-03-23T11:45:22;94645.22;;;19.95;22.42
8703;BME280;9002;42.708;23.186;2024-03-23T11:48:01;94635.91;;;19.89;22.73
8703;BME280;9002;42.708;23.186;2024-03-23T11:50:28;94639.66;;;20.05;22.43
8703;BME280;9002;42.708;23.186;2024-03-23T11:55:53;94610.06;;;19.91;21.92
8703;BME280;9002;42.708;23.186;2024-03-23T11:58:20;94608.09;;;20.05;21.46
8703;BME280;9002;42.708;23.186;2024-03-23T12:00:51;94611.28;;;20.59;21.22
8703;BME280;9002;42.708;23.186;2024-03-23T12:03:19;94607.09;;;20.58;20.84
8703;BME280;9002;42.708;23.186;2024-03-23T12:05:48;94603.16;;;20.99;20.82
8703;BME280;9002;42.708;23.186;2024-03-23T12:08:16;94585.31;;;21.22;20.28
8703;BME280;9002;42.708;23.186;2024-03-23T12:10:44;94589.22;;;21.07;20.41
8703;BME280;9002;42.708;23.186;2024-03-23T12:15:54;94586.34;;;21.38;19.83
8703;BME280;9002;42.708;23.186;2024-03-23T12:18:24;94578.19;;;21.22;19.98
8703;BME280;9002;42.708;23.186;2024-03-23T12:20:50;94577.97;;;21.45;19.75
8703;BME280;9002;42.708;23.186;2024-03-23T12:23:17;94571.94;;;22.03;19.21
8703;BME280;9002;42.708;23.186;2024-03-23T12:25:43;94565.59;;;22.25;18.38
8703;BME280;9002;42.708;23.186;2024-03-23T12:28:10;94558.25;;;22.01;16.66
8703;BME280;9002;42.708;23.186;2024-03-23T12:30:39;94561.44;;;21.65;16.67
8703;BME280;9002;42.708;23.186;2024-03-23T12:33:06;94560.34;;;21.96;18.60
8703;BME280;9002;42.708;23.186;2024-03-23T12:35:34;94555.44;;;21.56;18.43
8703;BME280;9002;42.708;23.186;2024-03-23T12:38:00;94552.84;;;21.77;17.52
8703;BME280;9002;42.708;23.186;2024-03-23T12:40:26;94533.91;;;21.54;14.99
8703;BME280;9002;42.708;23.186;2024-03-23T12:42:54;94528.88;;;21.40;15.10
8703;BME280;9002;42.708;23.186;2024-03-23T12:45:21;94532.72;;;21.72;15.27
8703;BME280;9002;42.708;23.186;2024-03-23T12:50:28;94546.91;;;22.09;17.37
8703;BME280;9002;42.708;23.186;2024-03-23T12:52:57;94506.56;;;21.67;14.83
8703;BME280;9002;42.708;23.186;2024-03-23T12:55:23;94529.06;;;22.06;14.15
8703;BME280;9002;42.708;23.186;2024-03-23T12:57:50;94526.94;;;22.29;13.40
8703;BME280;9002;42.708;23.186;2024-03-23T13:00:16;94520.63;;;22.55;14.41
8703;BME280;9002;42.708;23.186;2024-03-23T13:02:44;94507.59;;;23.04;13.59
8703;BME280;9002;42.708;23.186;2024-03-23T13:05:10;94516.72;;;22.94;13.41
8703;BME280;9002;42.708;23.186;2024-03-23T13:07:37;94510.56;;;23.27;13.60
8703;BME280;9002;42.708;23.186;2024-03-23T13:10:06;94510.03;;;23.82;12.37
8703;BME280;9002;42.708;23.186;2024-03-23T13:12:33;94497.06;;;23.65;12.45
8703;BME280;9002;42.708;23.186;2024-03-23T13:14:59;94497.69;;;23.49;12.65
8703;BME280;9002;42.708;23.186;2024-03-23T13:17:26;94503.41;;;23.15;12.63
8703;BME280;9002;42.708;23.186;2024-03-23T13:19:54;94478.41;;;23.25;13.34
8703;BME280;9002;42.708;23.186;2024-03-23T13:22:22;94497.69;;;23.49;12.52
8703;BME280;9002;42.708;23.186;2024-03-23T13:24:47;94491.44;;;23.66;12.42
8703;BME280;9002;42.708;23.186;2024-03-23T13:27:17;94486.44;;;23.04;12.59
8703;BME280;9002;42.708;23.186;2024-03-23T13:29:42;94474.78;;;23.05;13.52
8703;BME280;9002;42.708;23.186;2024-03-23T13:32:11;94469.72;;;23.48;12.84
8703;BME280;9002;42.708;23.186;2024-03-23T13:34:37;94472.78;;;23.63;12.58
8703;BME280;9002;42.708;23.186;2024-03-23T13:37:04;94472.50;;;24.04;12.62
8703;BME280;9002;42.708;23.186;2024-03-23T13:39:32;94468.41;;;23.06;12.86
8703;BME280;9002;42.708;23.186;2024-03-23T13:41:59;94461.44;;;22.89;13.80
8703;BME280;9002;42.708;23.186;2024-03-23T13:44:30;94466.56;;;22.73;13.72
8703;BME280;9002;42.708;23.186;2024-03-23T13:46:57;94462.97;;;22.45;13.71
8703;BME280;9002;42.708;23.186;2024-03-23T13:49:27;94446.50;;;22.15;14.52
8703;BME280;9002;42.708;23.186;2024-03-23T13:51:55;94457.06;;;22.48;14.43
8703;BME280;9002;42.708;23.186;2024-03-23T13:54:23;94444.53;;;23.02;14.22
8703;BME280;9002;42.708;23.186;2024-03-23T13:56:50;94451.47;;;23.19;13.36
8703;BME280;9002;42.708;23.186;2024-03-23T13:59:15;94448.88;;;23.84;12.88
8703;BME280;9002;42.708;23.186;2024-03-23T14:01:44;94445.50;;;24.55;13.03
8703;BME280;9002;42.708;23.186;2024-03-23T14:04:11;94446.78;;;24.61;12.37
8703;BME280;9002;42.708;23.186;2024-03-23T14:06:38;94445.84;;;24.53;13.08
8703;BME280;9002;42.708;23.186;2024-03-23T14:09:04;94448.75;;;24.20;12.80
8703;BME280;9002;42.708;23.186;2024-03-23T14:11:34;94425.16;;;24.15;13.49
8703;BME280;9002;42.708;23.186;2024-03-23T14:14:04;94423.88;;;23.57;13.40
8703;BME280;9002;42.708;23.186;2024-03-23T14:16:31;94427.28;;;23.69;13.21
8703;BME280;9002;42.708;23.186;2024-03-23T14:18:58;94442.22;;;23.37;14.03
8703;BME280;9002;42.708;23.186;2024-03-23T15:28:08;94356.53;;;21.95;16.47
8703;BME280;9002;42.708;23.186;2024-03-23T15:30:35;94375.63;;;22.25;16.52
8703;BME280;9002;42.708;23.186;2024-03-23T15:33:01;94369.50;;;22.33;16.25
8703;BME280;9002;42.708;23.186;2024-03-23T15:35:29;94374.72;;;22.66;16.56
8703;BME280;9002;42.708;23.186;2024-03-23T15:37:55;94378.31;;;22.50;16.04